sensor_id;sensor_type;location;lat;lon;timestamp;pressure;altitude;pressure_sealevel;temperature;humidity
66021;BME280;52789;59.980;30.346;2023-04-30T00:00:41;101368.06;;;5.46;59.41
66021;BME280;52789;59.980;30.346;2023-04-30T00:03:06;101367.94;;;5.48;59.71
66021;BME280;52789;59.980;30.346;2023-04-30T00:05:32;101359.72;;;5.52;59.65
66021;BME280;52789;59.980;30.346;2023-04-30T00:07:57;101360.31;;;5.56;59.07
66021;BME280;52789;59.980;30.346;2023-04-30T00:10:22;101362.84;;;5.57;59.64
66021;BME280;52789;59.980;30.346;2023-04-30T00:12:48;101360.06;;;5.59;59.44
66021;BME280;52789;59.980;30.346;2023-04-30T00:15:13;101352.88;;;5.61;59.60
66021;BME280;52789;59.980;30.346;2023-04-30T00:17:39;101349.41;;;5.60;59.17
66021;BME280;52789;59.980;30.346;2023-04-30T00:20:04;101342.19;;;5.63;58.41
66021;BME280;52789;59.980;30.346;2023-04-30T00:22:30;101336.78;;;5.64;58.78
66021;BME280;52789;59.980;30.346;2023-04-30T00:24:57;101328.84;;;5.64;58.94
66021;BME280;52789;59.980;30.346;2023-04-30T00:27:22;101325.97;;;5.67;58.12
66021;BME280;52789;59.980;30.346;2023-04-30T00:29:47;101320.47;;;5.70;59.08
66021;BME280;52789;59.980;30.346;2023-04-30T00:32:13;101316.84;;;5.71;59.24
66021;BME280;52789;59.980;30.346;2023-04-30T00:34:38;101306.88;;;5.75;58.75
66021;BME280;52789;59.980;30.346;2023-04-30T00:37:04;101301.59;;;5.75;58.51
66021;BME280;52789;59.980;30.346;2023-04-30T00:39:29;101302.31;;;5.77;59.01
66021;BME280;52789;59.980;30.346;2023-04-30T00:41:54;101295.13;;;5.79;59.32
66021;BME280;52789;59.980;30.346;2023-04-30T00:44:20;101297.66;;;5.80;59.33
66021;BME280;52789;59.980;30.346;2023-04-30T00:46:47;101295.75;;;5.82;58.74
66021;BME280;52789;59.980;30.346;2023-04-30T00:49:13;101289.50;;;5.83;57.88
66021;BME280;52789;59.980;30.346;2023-04-30T00:51:39;101285.88;;;5.84;57.63
66021;BME280;52789;59.980;30.346;2023-04-30T00:54:04;101291.19;;;5.84;58.74
66021;BME280;52789;59.980;30.346;2023-04-30T00:56:31;101280.59;;;5.84;57.98
66021;BME280;52789;59.980;30.346;2023-04-30T00:58:57;101272.66;;;5.84;58.21
66021;BME280;52789;59.980;30.346;2023-04-30T01:01:26;101262.81;;;5.86;58.20
66021;BME280;52789;59.980;30.346;2023-04-30T01:03:54;101255.50;;;5.90;57.07
66021;BME280;52789;59.980;30.346;2023-04-30T01:06:19;101247.34;;;5.93;58.01
66021;BME280;52789;59.980;30.346;2023-04-30T01:08:45;101245.28;;;5.97;57.37
66021;BME280;52789;59.980;30.346;2023-04-30T01:13:41;101246.97;;;5.98;56.87
66021;BME280;52789;59.980;30.346;2023-04-30T01:16:14;101241.44;;;6.01;57.16
66021;BME280;52789;59.980;30.346;2023-04-30T01:18:47;101237.59;;;6.05;56.35
66021;BME280;52789;59.980;30.346;2023-04-30T01:21:13;101226.66;;;6.09;55.50
66021;BME280;52789;59.980;30.346;2023-04-30T01:28:34;101212.31;;;6.23;55.82
66021;BME280;52789;59.980;30.346;2023-04-30T01:31:00;101198.13;;;6.24;55.48
66021;BME280;52789;59.980;30.346;2023-04-30T01:33:25;101194.28;;;6.28;55.17
66021;BME280;52789;59.980;30.346;2023-04-30T01:43:49;101187.16;;;6.40;55.05
66021;BME280;52789;59.980;30.346;2023-04-30T01:48:52;101174.41;;;6.45;54.59
66021;BME280;52789;59.980;30.346;2023-04-30T01:51:36;101161.88;;;6.47;54.86
66021;BME280;52789;59.980;30.346;2023-04-30T01:56:43;101152.00;;;6.49;55.05
66021;BME280;52789;59.980;30.346;2023-04-30T01:59:10;101138.53;;;6.52;55.04
66021;BME280;52789;59.980;30.346;2023-04-30T02:01:35;101139.22;;;6.54;55.11
66021;BME280;52789;59.980;30.346;2023-04-30T02:04:01;101138.38;;;6.53;54.88
66021;BME280;52789;59.980;30.346;2023-04-30T02:06:27;101134.06;;;6.52;55.44
66021;BME280;52789;59.980;30.346;2023-04-30T02:08:54;101130.44;;;6.53;56.17
66021;BME280;52789;59.980;30.346;2023-04-30T02:11:20;101117.09;;;6.55;56.09
66021;BME280;52789;59.980;30.346;2023-04-30T02:13:49;101114.13;;;6.48;56.52
66021;BME280;52789;59.980;30.346;2023-04-30T02:16:14;101118.06;;;6.54;56.95
66021;BME280;52789;59.980;30.346;2023-04-30T02:18:39;101114.31;;;6.57;56.84
66021;BME280;52789;59.980;30.346;2023-04-30T02:21:05;101111.53;;;6.58;56.91
66021;BME280;52789;59.980;30.346;2023-04-30T02:23:30;101095.78;;;6.57;56.79
66021;BME280;52789;59.980;30.346;2023-04-30T02:25:55;101093.97;;;6.57;57.44
66021;BME280;52789;59.980;30.346;2023-04-30T02:28:21;101090.94;;;6.62;57.76
66021;BME280;52789;59.980;30.346;2023-04-30T02:30:46;101085.66;;;6.62;57.72
66021;BME280;52789;59.980;30.346;2023-04-30T02:33:12;101081.19;;;6.62;58.34
66021;BME280;52789;59.980;30.346;2023-04-30T02:35:38;101082.75;;;6.65;58.37
66021;BME280;52789;59.980;30.346;2023-04-30T02:38:05;101077.34;;;6.66;58.88
66021;BME280;52789;59.980;30.346;2023-04-30T02:40:30;101075.53;;;6.67;58.77
66021;BME280;52789;59.980;30.346;2023-04-30T02:42:56;101081.53;;;6.69;57.98
66021;BME280;52789;59.980;30.346;2023-04-30T02:45:22;101076.97;;;6.71;58.74
66021;BME280;52789;59.980;30.346;2023-04-30T02:47:47;101075.72;;;6.75;58.87
66021;BME280;52789;59.980;30.346;2023-04-30T02:50:13;101073.78;;;6.77;58.52
66021;BME280;52789;59.980;30.346;2023-04-30T02:52:38;101070.03;;;6.79;59.26
66021;BME280;52789;59.980;30.346;2023-04-30T02:55:04;101060.72;;;6.85;59.23
66021;BME280;52789;59.980;30.346;2023-04-30T02:57:30;101060.47;;;6.88;59.30
66021;BME280;52789;59.980;30.346;2023-04-30T02:59:55;101051.28;;;6.92;59.28
66021;BME280;52789;59.980;30.346;2023-04-30T03:02:20;101062.34;;;6.97;59.05
66021;BME280;52789;59.980;30.346;2023-04-30T03:04:48;101051.75;;;6.97;59.24
66021;BME280;52789;59.980;30.346;2023-04-30T03:07:13;101053.41;;;6.98;58.95
66021;BME280;52789;59.980;30.346;2023-04-30T03:09:38;101060.25;;;7.01;59.03
66021;BME280;52789;59.980;30.346;2023-04-30T03:12:04;101051.91;;;7.05;59.65
66021;BME280;52789;59.980;30.346;2023-04-30T03:14:29;101045.25;;;7.11;59.46
66021;BME280;52789;59.980;30.346;2023-04-30T03:16:55;101039.28;;;7.19;59.40
66021;BME280;52789;59.980;30.346;2023-04-30T03:19:20;101036.63;;;7.19;59.28
66021;BME280;52789;59.980;30.346;2023-04-30T03:21:49;101034.44;;;7.24;59.28
66021;BME280;52789;59.980;30.346;2023-04-30T03:24:14;101040.81;;;7.21;59.36
66021;BME280;52789;59.980;30.346;2023-04-30T03:26:40;101028.31;;;7.23;59.12
66021;BME280;52789;59.980;30.346;2023-04-30T03:29:05;101028.31;;;7.23;58.76
66021;BME280;52789;59.980;30.346;2023-04-30T03:31:30;101031.06;;;7.22;58.69
66021;BME280;52789;59.980;30.346;2023-04-30T03:33:56;101036.94;;;7.25;59.67
66021;BME280;52789;59.980;30.346;2023-04-30T03:36:21;101025.38;;;7.26;59.42
66021;BME280;52789;59.980;30.346;2023-04-30T03:38:47;101022.31;;;7.31;58.74
66021;BME280;52789;59.980;30.346;2023-04-30T03:41:12;101021.06;;;7.35;59.13
66021;BME280;52789;59.980;30.346;2023-04-30T03:43:37;101019.13;;;7.37;58.71
66021;BME280;52789;59.980;30.346;2023-04-30T03:46:03;101014.09;;;7.34;58.31
66021;BME280;52789;59.980;30.346;2023-04-30T03:48:28;100998.19;;;7.34;58.87
66021;BME280;52789;59.980;30.346;2023-04-30T03:50:53;100996.13;;;7.37;59.38
66021;BME280;52789;59.980;30.346;2023-04-30T03:53:19;100997.66;;;7.40;58.48
66021;BME280;52789;59.980;30.346;2023-04-30T03:55:44;100991.94;;;7.44;58.86
66021;BME280;52789;59.980;30.346;2023-04-30T03:58:09;100977.84;;;7.44;58.39
66021;BME280;52789;59.980;30.346;2023-04-30T04:00:35;100976.59;;;7.48;58.02
66021;BME280;52789;59.980;30.346;2023-04-30T04:03:01;100971.75;;;7.53;57.81
66021;BME280;52789;59.980;30.346;2023-04-30T04:05:26;100966.31;;;7.64;58.02
66021;BME280;52789;59.980;30.346;2023-04-30T04:07:51;100962.13;;;7.71;57.06
66021;BME280;52789;59.980;30.346;2023-04-30T04:10:16;100962.25;;;7.80;56.00
66021;BME280;52789;59.980;30.346;2023-04-30T04:12:42;100951.81;;;7.88;55.86
66021;BME280;52789;59.980;30.346;2023-04-30T04:15:07;100955.84;;;7.92;55.83
66021;BME280;52789;59.980;30.346;2023-04-30T04:17:33;100949.41;;;7.94;55.80
66021;BME280;52789;59.980;30.346;2023-04-30T04:19:58;100944.53;;;7.90;54.97
66021;BME280;52789;59.980;30.346;2023-04-30T04:22:23;100944.81;;;7.87;55.99
66021;BME280;52789;59.980;30.346;2023-04-30T04:24:49;100947.47;;;7.87;55.96
66021;BME280;52789;59.980;30.346;2023-04-30T04:27:15;100948.59;;;7.84;55.67
66021;BME280;52789;59.980;30.346;2023-04-30T04:29:40;100941.88;;;7.90;56.24
66021;BME280;52789;59.980;30.346;2023-04-30T04:32:06;100947.31;;;7.98;56.39
66021;BME280;52789;59.980;30.346;2023-04-30T04:34:32;100944.22;;;8.02;55.58
66021;BME280;52789;59.980;30.346;2023-04-30T04:36:57;100942.72;;;8.10;55.51
66021;BME280;52789;59.980;30.346;2023-04-30T04:39:23;100934.31;;;8.14;55.31
66021;BME280;52789;59.980;30.346;2023-04-30T04:41:48;100934.16;;;8.25;55.26
66021;BME280;52789;59.980;30.346;2023-04-30T04:44:13;100926.72;;;8.29;53.88
66021;BME280;52789;59.980;30.346;2023-04-30T04:46:39;100945.16;;;8.30;54.14
66021;BME280;52789;59.980;30.346;2023-04-30T04:49:06;100937.06;;;8.32;54.01
66021;BME280;52789;59.980;30.346;2023-04-30T04:51:32;100936.06;;;8.33;54.15
66021;BME280;52789;59.980;30.346;2023-04-30T04:53:57;100927.28;;;8.32;53.05
66021;BME280;52789;59.980;30.346;2023-04-30T04:56:23;100934.28;;;8.33;52.75
66021;BME280;52789;59.980;30.346;2023-04-30T04:58:48;100943.63;;;8.37;53.07
66021;BME280;52789;59.980;30.346;2023-04-30T05:01:13;100937.78;;;8.44;54.01
66021;BME280;52789;59.980;30.346;2023-04-30T05:03:39;100941.50;;;8.51;53.43
66021;BME280;52789;59.980;30.346;2023-04-30T05:06:04;100943.72;;;8.55;53.05
66021;BME280;52789;59.980;30.346;2023-04-30T05:08:30;100923.03;;;8.59;52.96
66021;BME280;52789;59.980;30.346;2023-04-30T05:10:55;100932.38;;;8.63;52.91
66021;BME280;52789;59.980;30.346;2023-04-30T05:13:20;100931.66;;;8.71;52.53
66021;BME280;52789;59.980;30.346;2023-04-30T05:15:46;100936.84;;;8.72;53.02
66021;BME280;52789;59.980;30.346;2023-04-30T05:18:12;100935.84;;;8.73;52.25
66021;BME280;52789;59.980;30.346;2023-04-30T05:20:37;100937.66;;;8.73;52.38
66021;BME280;52789;59.980;30.346;2023-04-30T05:23:02;100939.19;;;8.75;52.59
66021;BME280;52789;59.980;30.346;2023-04-30T05:25:28;100935.94;;;8.81;51.66
66021;BME280;52789;59.980;30.346;2023-04-30T05:27:54;100920.94;;;8.90;51.75
66021;BME280;52789;59.980;30.346;2023-04-30T05:30:20;100909.47;;;8.89;51.67
66021;BME280;52789;59.980;30.346;2023-04-30T05:32:45;100905.16;;;8.88;52.06
66021;BME280;52789;59.980;30.346;2023-04-30T05:35:15;100908.78;;;8.87;51.45
66021;BME280;52789;59.980;30.346;2023-04-30T05:37:40;100893.25;;;8.92;51.54
66021;BME280;52789;59.980;30.346;2023-04-30T05:40:06;100896.59;;;8.94;51.59
66021;BME280;52789;59.980;30.346;2023-04-30T05:42:31;100899.03;;;9.06;51.90
66021;BME280;52789;59.980;30.346;2023-04-30T05:44:57;100899.81;;;9.16;51.56
66021;BME280;52789;59.980;30.346;2023-04-30T05:47:23;100912.44;;;9.31;50.67
66021;BME280;52789;59.980;30.346;2023-04-30T05:49:48;100913.06;;;9.43;50.18
66021;BME280;52789;59.980;30.346;2023-04-30T05:52:13;100903.88;;;9.55;50.24
66021;BME280;52789;59.980;30.346;2023-04-30T05:54:41;100892.78;;;9.60;50.27
66021;BME280;52789;59.980;30.346;2023-04-30T05:57:06;100887.47;;;9.60;49.80
66021;BME280;52789;59.980;30.346;2023-04-30T05:59:31;100891.00;;;9.69;50.92
66021;BME280;52789;59.980;30.346;2023-04-30T06:01:57;100894.03;;;9.74;49.50
66021;BME280;52789;59.980;30.346;2023-04-30T06:04:23;100889.25;;;9.77;49.84
66021;BME280;52789;59.980;30.346;2023-04-30T06:06:48;100880.81;;;9.82;49.73
66021;BME280;52789;59.980;30.346;2023-04-30T06:09:13;100888.88;;;9.90;49.53
66021;BME280;52789;59.980;30.346;2023-04-30T06:11:39;100889.38;;;9.93;49.17
66021;BME280;52789;59.980;30.346;2023-04-30T06:14:04;100896.84;;;9.90;49.19
66021;BME280;52789;59.980;30.346;2023-04-30T06:16:30;100898.50;;;9.91;49.30
66021;BME280;52789;59.980;30.346;2023-04-30T06:18:55;100901.59;;;10.04;49.28
66021;BME280;52789;59.980;30.346;2023-04-30T06:21:21;100901.63;;;10.30;48.84
66021;BME280;52789;59.980;30.346;2023-04-30T06:23:50;100896.97;;;10.66;48.89
66021;BME280;52789;59.980;30.346;2023-04-30T06:26:15;100899.94;;;10.97;47.21
66021;BME280;52789;59.980;30.346;2023-04-30T06:28:41;100903.97;;;11.09;47.74
66021;BME280;52789;59.980;30.346;2023-04-30T06:31:06;100902.47;;;11.07;47.26
66021;BME280;52789;59.980;30.346;2023-04-30T06:33:31;100900.66;;;11.07;47.15
66021;BME280;52789;59.980;30.346;2023-04-30T06:35:57;100893.66;;;11.23;47.49
66021;BME280;52789;59.980;30.346;2023-04-30T06:38:22;100887.88;;;11.35;46.26
66021;BME280;52789;59.980;30.346;2023-04-30T06:40:47;100877.72;;;11.55;45.39
66021;BME280;52789;59.980;30.346;2023-04-30T06:43:13;100889.75;;;11.84;44.84
66021;BME280;52789;59.980;30.346;2023-04-30T06:45:38;100880.91;;;12.16;43.95
66021;BME280;52789;59.980;30.346;2023-04-30T06:48:04;100889.84;;;12.31;43.49
66021;BME280;52789;59.980;30.346;2023-04-30T06:50:29;100892.16;;;12.42;43.45
66021;BME280;52789;59.980;30.346;2023-04-30T06:52:55;100888.47;;;12.51;43.30
66021;BME280;52789;59.980;30.346;2023-04-30T06:55:20;100888.94;;;12.63;43.38
66021;BME280;52789;59.980;30.346;2023-04-30T06:57:46;100895.59;;;12.67;41.87
66021;BME280;52789;59.980;30.346;2023-04-30T07:00:11;100887.03;;;12.80;42.43
66021;BME280;52789;59.980;30.346;2023-04-30T07:02:45;100886.38;;;12.78;41.94
66021;BME280;52789;59.980;30.346;2023-04-30T07:05:15;100897.69;;;12.88;41.18
66021;BME280;52789;59.980;30.346;2023-04-30T07:07:40;100891.44;;;12.95;41.35
66021;BME280;52789;59.980;30.346;2023-04-30T07:10:06;100899.28;;;12.97;41.25
66021;BME280;52789;59.980;30.346;2023-04-30T07:12:31;100896.50;;;12.90;41.20
66021;BME280;52789;59.980;30.346;2023-04-30T07:14:56;100887.69;;;12.82;41.41
66021;BME280;52789;59.980;30.346;2023-04-30T07:17:22;100890.53;;;12.80;41.99
66021;BME280;52789;59.980;30.346;2023-04-30T07:19:47;100884.53;;;12.70;41.97
66021;BME280;52789;59.980;30.346;2023-04-30T07:22:12;100883.75;;;12.61;42.47
66021;BME280;52789;59.980;30.346;2023-04-30T07:24:38;100886.69;;;12.44;42.58
66021;BME280;52789;59.980;30.346;2023-04-30T07:27:03;100889.22;;;12.21;43.19
66021;BME280;52789;59.980;30.346;2023-04-30T07:29:29;100894.09;;;12.01;43.73
66021;BME280;52789;59.980;30.346;2023-04-30T07:31:54;100898.28;;;11.87;44.41
66021;BME280;52789;59.980;30.346;2023-04-30T07:34:20;100895.22;;;11.74;44.71
66021;BME280;52789;59.980;30.346;2023-04-30T07:36:47;100901.91;;;11.62;45.49
66021;BME280;52789;59.980;30.346;2023-04-30T07:39:12;100909.09;;;11.61;45.93
66021;BME280;52789;59.980;30.346;2023-04-30T07:41:38;100914.56;;;11.52;46.87
66021;BME280;52789;59.980;30.346;2023-04-30T07:44:03;100911.88;;;11.43;48.07
66021;BME280;52789;59.980;30.346;2023-04-30T07:46:30;100910.72;;;11.46;48.66
66021;BME280;52789;59.980;30.346;2023-04-30T07:48:59;100907.56;;;11.51;50.34
66021;BME280;52789;59.980;30.346;2023-04-30T07:51:25;100922.38;;;11.53;51.26
66021;BME280;52789;59.980;30.346;2023-04-30T07:53:51;100910.25;;;11.67;51.88
66021;BME280;52789;59.980;30.346;2023-04-30T07:56:17;100915.09;;;11.79;51.10
66021;BME280;52789;59.980;30.346;2023-04-30T07:58:42;100914.97;;;11.89;50.26
66021;BME280;52789;59.980;30.346;2023-04-30T08:01:08;100922.63;;;11.92;49.75
66021;BME280;52789;59.980;30.346;2023-04-30T08:03:58;100914.78;;;11.83;49.84
66021;BME280;52789;59.980;30.346;2023-04-30T08:06:24;100922.75;;;11.66;50.45
66021;BME280;52789;59.980;30.346;2023-04-30T08:08:49;100925.38;;;11.50;50.92
66021;BME280;52789;59.980;30.346;2023-04-30T08:11:14;100925.53;;;11.32;52.55
66021;BME280;52789;59.980;30.346;2023-04-30T08:13:40;100926.47;;;11.07;53.51
66021;BME280;52789;59.980;30.346;2023-04-30T08:16:06;100943.88;;;10.93;54.57
66021;BME280;52789;59.980;30.346;2023-04-30T08:18:31;100940.66;;;10.73;55.12
66021;BME280;52789;59.980;30.346;2023-04-30T08:20:56;100938.94;;;10.64;56.82
66021;BME280;52789;59.980;30.346;2023-04-30T08:23:22;100931.91;;;10.55;57.27
66021;BME280;52789;59.980;30.346;2023-04-30T08:25:47;100938.53;;;10.51;58.44
66021;BME280;52789;59.980;30.346;2023-04-30T08:28:12;100943.53;;;10.54;58.57
66021;BME280;52789;59.980;30.346;2023-04-30T08:30:38;100943.19;;;10.49;59.32
66021;BME280;52789;59.980;30.346;2023-04-30T08:33:03;100950.50;;;10.47;59.72
66021;BME280;52789;59.980;30.346;2023-04-30T08:35:28;100943.50;;;10.46;60.47
66021;BME280;52789;59.980;30.346;2023-04-30T08:37:54;100942.75;;;10.36;61.93
66021;BME280;52789;59.980;30.346;2023-04-30T08:40:20;100950.84;;;10.26;63.23
66021;BME280;52789;59.980;30.346;2023-04-30T08:42:48;100962.56;;;10.15;63.28
66021;BME280;52789;59.980;30.346;2023-04-30T08:45:14;100963.41;;;9.98;67.26
66021;BME280;52789;59.980;30.346;2023-04-30T08:47:40;100959.91;;;9.80;70.73
66021;BME280;52789;59.980;30.346;2023-04-30T08:50:06;100963.50;;;9.71;74.94
66021;BME280;52789;59.980;30.346;2023-04-30T08:52:32;100977.38;;;9.47;77.74
66021;BME280;52789;59.980;30.346;2023-04-30T08:54:58;100991.66;;;9.28;78.20
66021;BME280;52789;59.980;30.346;2023-04-30T08:57:25;100990.06;;;9.08;81.67
66021;BME280;52789;59.980;30.346;2023-04-30T08:59:51;101002.72;;;8.86;84.35
66021;BME280;52789;59.980;30.346;2023-04-30T09:02:16;100995.78;;;8.76;83.99
66021;BME280;52789;59.980;30.346;2023-04-30T09:04:43;101000.56;;;8.72;84.27
66021;BME280;52789;59.980;30.346;2023-04-30T09:07:09;100998.75;;;8.73;85.97
66021;BME280;52789;59.980;30.346;2023-04-30T09:09:38;101003.22;;;8.62;85.26
66021;BME280;52789;59.980;30.346;2023-04-30T09:12:11;101013.88;;;8.53;87.13
66021;BME280;52789;59.980;30.346;2023-04-30T09:14:40;101015.81;;;8.31;88.25
66021;BME280;52789;59.980;30.346;2023-04-30T09:17:06;101015.00;;;8.21;88.79
66021;BME280;52789;59.980;30.346;2023-04-30T09:19:33;101014.31;;;8.19;90.30
66021;BME280;52789;59.980;30.346;2023-04-30T09:21:58;101016.13;;;8.19;91.81
66021;BME280;52789;59.980;30.346;2023-04-30T09:24:23;101022.28;;;8.19;91.78
66021;BME280;52789;59.980;30.346;2023-04-30T09:26:49;101018.09;;;8.17;92.47
66021;BME280;52789;59.980;30.346;2023-04-30T09:29:15;101024.38;;;8.16;93.24
66021;BME280;52789;59.980;30.346;2023-04-30T09:31:46;101027.59;;;8.10;93.32
66021;BME280;52789;59.980;30.346;2023-04-30T09:34:12;101031.47;;;8.05;95.65
66021;BME280;52789;59.980;30.346;2023-04-30T09:36:50;101031.06;;;8.00;96.61
66021;BME280;52789;59.980;30.346;2023-04-30T09:39:17;101022.41;;;7.89;98.75
66021;BME280;52789;59.980;30.346;2023-04-30T09:41:42;101025.06;;;7.89;98.17
66021;BME280;52789;59.980;30.346;2023-04-30T09:44:24;101021.72;;;7.87;98.13
66021;BME280;52789;59.980;30.346;2023-04-30T09:46:50;101030.94;;;7.83;98.08
66021;BME280;52789;59.980;30.346;2023-04-30T09:49:16;101026.16;;;7.76;99.03
66021;BME280;52789;59.980;30.346;2023-04-30T09:51:52;101032.03;;;7.80;97.94
66021;BME280;52789;59.980;30.346;2023-04-30T09:54:17;101034.38;;;7.73;98.65
66021;BME280;52789;59.980;30.346;2023-04-30T09:56:44;101030.19;;;7.61;98.91
66021;BME280;52789;59.980;30.346;2023-04-30T09:59:10;101032.94;;;7.50;100.00
66021;BME280;52789;59.980;30.346;2023-04-30T10:01:37;101043.69;;;7.49;100.00
66021;BME280;52789;59.980;30.346;2023-04-30T10:04:03;101046.19;;;7.50;100.00
66021;BME280;52789;59.980;30.346;2023-04-30T10:06:33;101053.44;;;7.48;100.00
66021;BME280;52789;59.980;30.346;2023-04-30T10:08:59;101053.16;;;7.41;100.00
66021;BME280;52789;59.980;30.346;2023-04-30T10:11:27;101045.63;;;7.37;100.00
66021;BME280;52789;59.980;30.346;2023-04-30T10:13:59;101046.47;;;7.37;100.00
66021;BME280;52789;59.980;30.346;2023-04-30T10:16:38;101046.47;;;7.37;100.00
66021;BME280;52789;59.980;30.346;2023-04-30T10:19:06;101042.56;;;7.41;100.00
66021;BME280;52789;59.980;30.346;2023-04-30T10:21:34;101060.69;;;7.46;100.00
66021;BME280;52789;59.980;30.346;2023-04-30T10:24:02;101050.09;;;7.46;100.00
66021;BME280;52789;59.980;30.346;2023-04-30T10:26:28;101047.16;;;7.49;100.00
66021;BME280;52789;59.980;30.346;2023-04-30T10:28:54;101051.34;;;7.52;100.00
66021;BME280;52789;59.980;30.346;2023-04-30T10:31:22;101049.16;;;7.57;100.00
66021;BME280;52789;59.980;30.346;2023-04-30T10:36:20;101050.53;;;7.51;100.00
66021;BME280;52789;59.980;30.346;2023-04-30T10:38:46;101052.59;;;7.47;100.00
66021;BME280;52789;59.980;30.346;2023-04-30T10:41:12;101056.50;;;7.34;100.00
66021;BME280;52789;59.980;30.346;2023-04-30T10:43:37;101050.50;;;7.32;100.00
66021;BME280;52789;59.980;30.346;2023-04-30T10:46:03;101045.31;;;7.30;100.00
66021;BME280;52789;59.980;30.346;2023-04-30T10:48:28;101049.91;;;7.28;100.00
66021;BME280;52789;59.980;30.346;2023-04-30T10:50:57;101056.56;;;7.23;100.00
66021;BME280;52789;59.980;30.346;2023-04-30T10:53:23;101057.53;;;7.22;100.00
66021;BME280;52789;59.980;30.346;2023-04-30T10:55:57;101043.88;;;7.17;100.00
66021;BME280;52789;59.980;30.346;2023-04-30T10:58:24;101058.50;;;7.11;100.00
66021;BME280;52789;59.980;30.346;2023-04-30T11:00:50;101050.25;;;7.04;100.00
66021;BME280;52789;59.980;30.346;2023-04-30T11:03:24;101049.94;;;6.98;100.00
66021;BME280;52789;59.980;30.346;2023-04-30T11:05:49;101058.59;;;7.00;100.00
66021;BME280;52789;59.980;30.346;2023-04-30T11:08:15;101071.16;;;7.07;100.00
66021;BME280;52789;59.980;30.346;2023-04-30T11:10:55;101049.94;;;6.98;100.00
66021;BME280;52789;59.980;30.346;2023-04-30T11:13:20;101055.38;;;6.96;100.00
66021;BME280;52789;59.980;30.346;2023-04-30T11:15:46;101056.22;;;6.97;100.00
66021;BME280;52789;59.980;30.346;2023-04-30T11:18:12;101060.66;;;6.96;100.00
66021;BME280;52789;59.980;30.346;2023-04-30T11:20:40;101065.69;;;6.99;100.00
66021;BME280;52789;59.980;30.346;2023-04-30T11:23:13;101072.66;;;7.00;100.00
66021;BME280;52789;59.980;30.346;2023-04-30T11:25:44;101069.94;;;6.91;100.00
66021;BME280;52789;59.980;30.346;2023-04-30T11:28:14;101076.34;;;6.88;100.00
66021;BME280;52789;59.980;30.346;2023-04-30T11:30:50;101078.56;;;6.83;100.00
66021;BME280;52789;59.980;30.346;2023-04-30T11:33:16;101078.56;;;6.83;100.00
66021;BME280;52789;59.980;30.346;2023-04-30T11:35:42;101079.97;;;6.87;100.00
66021;BME280;52789;59.980;30.346;2023-04-30T11:38:07;101082.56;;;6.98;100.00
66021;BME280;52789;59.980;30.346;2023-04-30T11:40:34;101082.59;;;7.08;100.00
66021;BME280;52789;59.980;30.346;2023-04-30T11:42:59;101084.31;;;7.19;100.00
66021;BME280;52789;59.980;30.346;2023-04-30T11:45:25;101081.56;;;7.30;100.00
66021;BME280;52789;59.980;30.346;2023-04-30T11:47:52;101076.31;;;7.49;100.00
66021;BME280;52789;59.980;30.346;2023-04-30T11:50:19;101080.13;;;7.56;100.00
66021;BME280;52789;59.980;30.346;2023-04-30T11:52:49;101073.03;;;7.66;100.00
66021;BME280;52789;59.980;30.346;2023-04-30T11:55:16;101075.84;;;7.74;100.00
66021;BME280;52789;59.980;30.346;2023-04-30T11:57:42;101071.69;;;7.82;100.00
66021;BME280;52789;59.980;30.346;2023-04-30T12:00:18;101068.56;;;7.76;100.00
66021;BME280;52789;59.980;30.346;2023-04-30T12:02:44;101067.19;;;7.72;100.00
66021;BME280;52789;59.980;30.346;2023-04-30T12:05:17;101073.59;;;7.70;100.00
66021;BME280;52789;59.980;30.346;2023-04-30T12:10:11;101063.41;;;7.75;100.00
66021;BME280;52789;59.980;30.346;2023-04-30T12:12:36;101067.22;;;7.82;100.00
66021;BME280;52789;59.980;30.346;2023-04-30T12:15:15;101062.06;;;7.90;100.00
66021;BME280;52789;59.980;30.346;2023-04-30T12:17:40;101062.34;;;7.97;100.00
66021;BME280;52789;59.980;30.346;2023-04-30T12:20:09;101066.97;;;8.14;100.00
66021;BME280;52789;59.980;30.346;2023-04-30T12:22:35;101062.19;;;8.27;100.00
66021;BME280;52789;59.980;30.346;2023-04-30T12:25:05;101063.06;;;8.37;99.00
66021;BME280;52789;59.980;30.346;2023-04-30T12:27:32;101061.09;;;8.49;98.49
66021;BME280;52789;59.980;30.346;2023-04-30T12:30:05;101046.00;;;8.59;97.77
66021;BME280;52789;59.980;30.346;2023-04-30T12:32:41;101050.47;;;8.68;97.32
66021;BME280;52789;59.980;30.346;2023-04-30T12:35:08;101058.41;;;8.78;95.65
66021;BME280;52789;59.980;30.346;2023-04-30T12:37:34;101050.84;;;8.83;95.73
66021;BME280;52789;59.980;30.346;2023-04-30T12:39:59;101059.34;;;8.87;96.01
66021;BME280;52789;59.980;30.346;2023-04-30T12:42:30;101066.31;;;8.88;95.21
66021;BME280;52789;59.980;30.346;2023-04-30T12:44:57;101061.84;;;8.88;95.35
66021;BME280;52789;59.980;30.346;2023-04-30T12:47:23;101060.28;;;8.95;95.64
66021;BME280;52789;59.980;30.346;2023-04-30T12:49:49;101058.47;;;9.06;94.78
66021;BME280;52789;59.980;30.346;2023-04-30T12:52:14;101061.22;;;9.14;95.41
66021;BME280;52789;59.980;30.346;2023-04-30T12:54:39;101057.19;;;9.37;95.30
66021;BME280;52789;59.980;30.346;2023-04-30T12:57:09;101070.19;;;9.68;94.96
66021;BME280;52789;59.980;30.346;2023-04-30T12:59:54;101063.19;;;9.67;90.35
66021;BME280;52789;59.980;30.346;2023-04-30T13:02:23;101053.84;;;9.62;91.28
66021;BME280;52789;59.980;30.346;2023-04-30T13:04:49;101066.31;;;9.80;91.71
66021;BME280;52789;59.980;30.346;2023-04-30T13:07:15;101060.56;;;9.84;89.87